Beaufort MCAS - Merritt Field Beaufort US
ICAO: KNBC
IATA: NBC
Category: Medium
Scheduled Services: No

Elevation: 37 ft
TransAlt. 18000 ft.

Airport Communications:
APP/DEP:118.45
ATIS:27.8
GND/CLNC DEL:128.15
BASE OPS:28.18
PMSV METRO:26.45
TWR:119.05

KNBC Zoom In..

Runways:

(A) RW 05 length 12202 ft width 200 ft
---- / hdg 47

(B) RW 14 length 7999 ft width 200 ft
---- / hdg 140

(C) RW 23 length 12202 ft width 200 ft
---- / hdg 227

(D) RW 32 length 7999 ft width 200 ft
---- / hdg 320

Location; KNBC
Day. 16 / Time. 18.03 Zulu
* Altimeter: 30.05
* Temperature: 28° c. 82.4°f.
* Wind from: 140° Speed 07 kn with Gusts up to 14 kn.
Dewpoint: 26° c.
Visibility: 9 Statute Miles.
Clouds: Broken 1700 ft.
Clouds: Overcast 3000 ft.

KNBC 161803Z 14007G14KT 9SM -TSRA BKN017CB OVC030 28/26 A3005 RMK AO2 RAB01 P0001 T02780256


Wind From 140°
Speed 07 kn.

 
 
jpsmedia.com for Web Design worldairports.se 2018   terms of use